createdAt,value
2022-11-24T00:01:32.072Z,2.42
2022-11-24T00:04:05.570Z,2.40
2022-11-24T00:06:36.201Z,2.35
2022-11-24T00:09:05.635Z,2.32
2022-11-24T00:11:36.849Z,2.31
2022-11-24T00:14:06.458Z,2.35
2022-11-24T00:16:37.238Z,2.35
2022-11-24T00:19:11.429Z,2.33
2022-11-24T00:21:41.933Z,2.34
2022-11-24T00:24:10.517Z,2.34
2022-11-24T00:26:39.001Z,2.31
2022-11-24T00:29:08.099Z,2.30
2022-11-24T00:31:41.692Z,2.29
2022-11-24T00:34:14.784Z,2.29
2022-11-24T00:36:43.832Z,2.35
2022-11-24T00:39:14.409Z,2.35
2022-11-24T00:41:43.305Z,2.34
2022-11-24T00:44:11.680Z,2.34
2022-11-24T00:46:40.392Z,2.34
2022-11-24T00:49:09.455Z,2.34
2022-11-24T00:51:37.730Z,2.29
2022-11-24T00:54:07.032Z,2.26
2022-11-24T00:56:35.306Z,2.25
2022-11-24T00:59:04.441Z,2.29
2022-11-24T01:01:32.666Z,2.28
2022-11-24T01:04:02.083Z,2.26
2022-11-24T01:06:31.596Z,2.28
2022-11-24T01:09:00.170Z,2.29
2022-11-24T01:11:54.454Z,2.29
2022-11-24T01:14:25.290Z,2.28
2022-11-24T01:16:54.605Z,2.25
2022-11-24T01:19:23.488Z,2.24
2022-11-24T01:21:51.758Z,2.28
2022-11-24T01:24:20.134Z,2.29
2022-11-24T01:26:48.410Z,2.27
2022-11-24T01:29:16.686Z,2.25
2022-11-24T01:31:44.965Z,2.23
2022-11-24T01:34:13.855Z,2.19
2022-11-24T01:36:42.130Z,2.18
2022-11-24T01:39:10.721Z,2.14
2022-11-24T01:41:38.987Z,2.13
2022-11-24T01:44:28.360Z,2.17
2022-11-24T01:47:08.718Z,2.15
2022-11-24T01:49:45.186Z,2.14
2022-11-24T01:52:22.064Z,2.15
2022-11-24T01:54:56.279Z,2.14
2022-11-24T01:57:39.094Z,2.10
2022-11-24T02:00:10.849Z,2.03
2022-11-24T02:02:45.049Z,2.01
2022-11-24T02:05:22.151Z,2.06
2022-11-24T02:07:53.151Z,2.07
2022-11-24T02:10:22.285Z,2.08
2022-11-24T02:12:55.168Z,2.12
2022-11-24T02:15:23.769Z,2.13
2022-11-24T02:17:52.131Z,2.12
2022-11-24T02:20:20.509Z,2.10
2022-11-24T02:23:03.632Z,2.08
2022-11-24T02:25:47.678Z,2.06
2022-11-24T02:28:19.744Z,2.10
2022-11-24T02:30:49.417Z,2.07
2022-11-24T02:33:18.754Z,2.06
2022-11-24T02:35:47.034Z,1.97
2022-11-24T02:38:15.407Z,1.89
2022-11-24T02:40:47.472Z,1.81
2022-11-24T02:43:23.841Z,1.75
2022-11-24T02:45:52.170Z,1.76
2022-11-24T02:48:20.528Z,1.82
2022-11-24T02:50:48.769Z,1.80
2022-11-24T02:53:17.148Z,1.82
2022-11-24T02:55:45.527Z,1.87
2022-11-24T02:58:15.337Z,1.91
2022-11-24T03:00:43.715Z,1.91
2022-11-24T03:03:12.281Z,1.87
2022-11-24T03:05:41.088Z,1.87
2022-11-24T03:08:09.364Z,1.87
2022-11-24T03:10:37.638Z,1.94
2022-11-24T03:13:06.268Z,1.93
2022-11-24T03:15:35.044Z,1.88
2022-11-24T03:18:03.593Z,1.86
2022-11-24T03:20:31.869Z,1.87
2022-11-24T03:23:00.143Z,1.88
2022-11-24T03:25:28.420Z,1.87
2022-11-24T03:27:58.521Z,1.84
2022-11-24T03:30:26.814Z,1.80
2022-11-24T03:32:55.091Z,1.77
2022-11-24T03:35:24.085Z,1.67
2022-11-24T03:37:52.361Z,1.59
2022-11-24T03:40:20.641Z,1.51
2022-11-24T03:42:49.019Z,1.45
2022-11-24T03:45:44.194Z,1.42
2022-11-24T03:48:06.711Z,1.38
2022-11-24T03:50:34.946Z,1.41
2022-11-24T03:53:03.216Z,1.49
2022-11-24T03:55:31.489Z,1.48
2022-11-24T03:57:59.970Z,1.48
2022-11-24T04:00:28.593Z,1.47
2022-11-24T04:02:56.846Z,1.47
2022-11-24T04:05:25.721Z,1.42
2022-11-24T04:07:57.893Z,1.41
2022-11-24T04:10:26.163Z,1.46
2022-11-24T04:12:54.747Z,1.48
2022-11-24T04:15:23.022Z,1.53
2022-11-24T04:17:51.503Z,1.56
2022-11-24T04:20:20.393Z,1.61
2022-11-24T04:22:50.932Z,1.62
2022-11-24T04:25:19.300Z,1.61
2022-11-24T04:27:52.272Z,1.61
2022-11-24T04:30:21.528Z,1.69
2022-11-24T04:32:50.067Z,1.70
2022-11-24T04:35:19.060Z,1.68
2022-11-24T04:37:47.950Z,1.66
2022-11-24T04:40:17.028Z,1.68
2022-11-24T04:42:53.818Z,1.67
2022-11-24T04:45:23.634Z,1.65
2022-11-24T04:47:52.118Z,1.68
2022-11-24T04:50:21.105Z,1.79
2022-11-24T04:52:49.391Z,1.80
2022-11-24T04:55:17.766Z,1.79
2022-11-24T04:57:46.038Z,1.77
2022-11-24T05:00:15.037Z,1.78
2022-11-24T05:02:43.407Z,1.78
2022-11-24T05:05:11.890Z,1.74
2022-11-24T05:07:40.250Z,1.71
2022-11-24T05:10:28.095Z,1.70
2022-11-24T05:12:59.620Z,1.77
2022-11-24T05:15:28.335Z,1.77
2022-11-24T05:17:57.349Z,1.77
2022-11-24T05:20:25.607Z,1.78
2022-11-24T05:22:53.775Z,1.77
2022-11-24T05:25:21.950Z,1.76
2022-11-24T05:27:50.328Z,1.74
2022-11-24T05:30:18.602Z,1.70
2022-11-24T05:32:46.776Z,1.68
2022-11-24T05:35:15.361Z,1.72
2022-11-24T05:37:43.534Z,1.73
2022-11-24T05:40:11.707Z,1.70
2022-11-24T05:42:47.057Z,1.69
2022-11-24T05:45:19.626Z,1.64
2022-11-24T05:47:50.055Z,1.57
2022-11-24T05:50:20.580Z,1.49
2022-11-24T05:52:49.615Z,1.47
2022-11-24T05:55:19.793Z,1.53
2022-11-24T05:57:48.062Z,1.51
2022-11-24T06:00:18.303Z,1.45
2022-11-24T06:02:46.535Z,1.44
2022-11-24T06:05:15.041Z,1.44
2022-11-24T06:07:43.407Z,1.47
2022-11-24T06:10:11.900Z,1.48
2022-11-24T06:12:39.970Z,1.51
2022-11-24T06:15:09.397Z,1.59
2022-11-24T06:17:38.879Z,1.59
2022-11-24T06:20:08.587Z,1.58
2022-11-24T06:22:37.786Z,1.55
2022-11-24T06:25:06.771Z,1.50
2022-11-24T06:27:34.848Z,1.40
2022-11-24T06:30:04.148Z,1.32
2022-11-24T06:32:32.426Z,1.26
2022-11-24T06:35:00.600Z,1.24
2022-11-24T06:37:28.982Z,1.16
2022-11-24T06:39:57.356Z,1.08
2022-11-24T06:42:25.529Z,1.05
2022-11-24T06:44:53.908Z,1.07
2022-11-24T06:47:22.284Z,1.09
2022-11-24T06:49:50.563Z,1.11
2022-11-24T06:52:18.735Z,1.19
2022-11-24T06:54:46.911Z,1.18
2022-11-24T06:57:14.981Z,1.13
2022-11-24T06:59:43.359Z,1.11
2022-11-24T07:02:11.538Z,1.09
2022-11-24T07:04:39.705Z,1.07
2022-11-24T07:07:07.973Z,1.01
2022-11-24T07:09:36.359Z,1.03
2022-11-24T07:12:06.078Z,1.11
2022-11-24T07:14:34.368Z,1.14
2022-11-24T07:17:04.874Z,1.14
2022-11-24T07:19:33.258Z,1.15
2022-11-24T07:22:01.429Z,1.21
2022-11-24T07:24:29.600Z,1.25
2022-11-24T07:26:57.671Z,1.27
2022-11-24T07:29:25.843Z,1.33
2022-11-24T07:31:54.151Z,1.46
2022-11-24T07:34:22.399Z,1.51
2022-11-24T07:36:50.569Z,1.52
2022-11-24T07:39:18.681Z,1.56
2022-11-24T07:41:46.815Z,1.57
2022-11-24T07:44:14.887Z,1.59
2022-11-24T07:46:43.059Z,1.59
2022-11-24T07:49:11.243Z,1.56
2022-11-24T07:51:39.307Z,1.52
2022-11-24T07:54:07.477Z,1.55
2022-11-24T07:56:35.752Z,1.55
2022-11-24T07:59:04.313Z,1.55
2022-11-24T08:01:32.643Z,1.53
2022-11-24T08:04:02.277Z,1.47
2022-11-24T08:06:39.394Z,1.49
2022-11-24T08:09:09.011Z,1.52
2022-11-24T08:11:37.082Z,1.57
2022-11-24T08:14:05.460Z,1.63
2022-11-24T08:16:33.949Z,1.66
2022-11-24T08:19:02.114Z,1.69
2022-11-24T08:21:30.289Z,1.73
2022-11-24T08:23:58.786Z,1.79
2022-11-24T08:26:27.265Z,1.79
2022-11-24T08:28:59.831Z,1.78
2022-11-24T08:31:34.027Z,1.73
2022-11-24T08:34:04.162Z,1.74
2022-11-24T08:36:33.563Z,1.80
2022-11-24T08:39:02.589Z,1.81
2022-11-24T08:41:31.762Z,1.80
2022-11-24T08:43:59.928Z,1.81
2022-11-24T08:46:28.371Z,1.79
2022-11-24T08:48:56.992Z,1.76
2022-11-24T08:51:27.030Z,1.72
2022-11-24T08:54:00.198Z,1.69
2022-11-24T08:56:30.830Z,1.71
2022-11-24T08:58:59.757Z,1.74
2022-11-24T09:01:29.338Z,1.73
2022-11-24T09:03:58.135Z,1.74
2022-11-24T09:06:31.066Z,1.73
2022-11-24T09:09:00.171Z,1.74
2022-11-24T09:11:28.882Z,1.78
2022-11-24T09:13:56.954Z,1.82
2022-11-24T09:16:28.082Z,1.89
2022-11-24T09:19:05.075Z,1.90
2022-11-24T09:21:37.864Z,1.90
2022-11-24T09:24:07.538Z,1.91
2022-11-24T09:26:40.621Z,1.89
2022-11-24T09:29:12.818Z,1.86
2022-11-24T09:31:41.204Z,1.83
2022-11-24T09:34:13.676Z,1.80
2022-11-24T09:36:42.525Z,1.84
2022-11-24T09:39:11.542Z,1.86
2022-11-24T09:41:44.446Z,1.86
2022-11-24T09:44:33.814Z,1.82
2022-11-24T09:47:20.729Z,1.79
2022-11-24T09:50:05.387Z,1.78
2022-11-24T09:52:41.959Z,1.79
2022-11-24T09:55:37.062Z,1.83
2022-11-24T09:58:45.478Z,1.80
2022-11-24T10:01:20.050Z,1.75
2022-11-24T10:03:51.149Z,1.73
2022-11-24T10:06:34.799Z,1.69
2022-11-24T10:09:30.705Z,1.67
2022-11-24T10:12:36.850Z,1.68
2022-11-24T10:15:21.836Z,1.71
2022-11-24T10:18:13.273Z,1.68
2022-11-24T10:21:18.192Z,1.71
2022-11-24T10:23:58.551Z,1.72
2022-11-24T10:26:36.553Z,1.71
2022-11-24T10:29:38.010Z,1.69
2022-11-24T10:32:16.313Z,1.64
2022-11-24T10:34:52.173Z,1.61
2022-11-24T10:37:26.694Z,1.57
2022-11-24T10:40:00.385Z,1.53
2022-11-24T10:42:32.154Z,1.52
2022-11-24T10:45:22.651Z,1.54
2022-11-24T10:47:51.030Z,1.57
2022-11-24T10:50:28.112Z,1.58
2022-11-24T10:53:05.707Z,1.57
2022-11-24T10:55:58.566Z,1.57
2022-11-24T10:58:28.075Z,1.59
2022-11-24T11:01:01.070Z,1.60
2022-11-24T11:03:33.360Z,1.64
2022-11-24T11:06:25.863Z,1.62
2022-11-24T11:09:09.400Z,1.61
2022-11-24T11:11:39.518Z,1.63
2022-11-24T11:14:11.126Z,1.65
2022-11-24T11:16:53.275Z,1.65
2022-11-24T11:19:54.376Z,1.65
2022-11-24T11:22:28.842Z,1.63
2022-11-24T11:25:14.829Z,1.58
2022-11-24T11:27:43.313Z,1.57
2022-11-24T11:36:12.010Z,1.55
2022-11-24T11:38:41.848Z,1.54
2022-11-24T11:41:22.208Z,1.61
2022-11-24T11:43:59.085Z,1.62
2022-11-24T11:46:31.534Z,1.57
2022-11-24T11:49:00.450Z,1.56
2022-11-24T11:55:05.716Z,1.52
2022-11-24T11:57:47.095Z,1.53
2022-11-24T12:00:22.102Z,1.58
2022-11-24T12:02:56.484Z,1.57
2022-11-24T12:05:43.772Z,1.54
2022-11-24T12:09:18.795Z,1.55
2022-11-24T12:12:11.356Z,1.55
2022-11-24T12:15:05.949Z,1.52
2022-11-24T12:18:21.643Z,1.56
2022-11-24T12:21:06.809Z,1.61
2022-11-24T12:23:59.352Z,1.62
2022-11-24T12:26:49.339Z,1.66
2022-11-24T12:29:39.424Z,1.68
2022-11-24T12:32:33.406Z,1.70
2022-11-24T12:35:19.599Z,1.78
2022-11-24T12:38:12.043Z,1.79
2022-11-24T12:41:18.357Z,1.75
2022-11-24T12:43:56.617Z,1.74
2022-11-24T12:47:03.014Z,1.70
2022-11-24T12:49:40.102Z,1.68
2022-11-24T12:52:31.897Z,1.67
2022-11-24T12:55:01.814Z,1.70
2022-11-24T12:58:10.795Z,1.67
2022-11-24T13:01:16.224Z,1.59
2022-11-24T13:04:04.228Z,1.50
2022-11-24T13:06:49.023Z,1.45
2022-11-24T13:09:17.983Z,1.41
2022-11-24T13:12:14.047Z,1.49
2022-11-24T13:14:44.947Z,1.51
2022-11-24T13:17:42.044Z,1.50
2022-11-24T13:20:19.508Z,1.47
2022-11-24T13:22:57.190Z,1.43
2022-11-24T13:25:29.018Z,1.35
2022-11-24T13:28:00.396Z,1.30
2022-11-24T13:30:34.815Z,1.34
2022-11-24T13:33:16.400Z,1.41
2022-11-24T13:36:11.917Z,1.42
2022-11-24T13:38:45.834Z,1.43
2022-11-24T13:41:32.404Z,1.42
2022-11-24T13:44:16.348Z,1.41
2022-11-24T13:47:32.574Z,1.41
2022-11-24T13:50:02.796Z,1.47
2022-11-24T13:52:42.130Z,1.46
2022-11-24T13:55:13.181Z,1.46
2022-11-24T13:57:48.102Z,1.46
2022-11-24T14:00:35.632Z,1.42
2022-11-24T14:03:26.795Z,1.45
2022-11-24T14:05:54.981Z,1.54
2022-11-24T14:08:28.927Z,1.52
2022-11-24T14:10:59.040Z,1.47
2022-11-24T14:13:28.140Z,1.46
2022-11-24T14:16:06.392Z,1.39
2022-11-24T14:18:36.366Z,1.33
2022-11-24T14:21:42.735Z,1.33
2022-11-24T14:24:42.789Z,1.38
2022-11-24T14:27:17.587Z,1.38
2022-11-24T14:29:54.667Z,1.39
2022-11-24T14:32:23.455Z,1.40
2022-11-24T14:34:52.336Z,1.41
2022-11-24T14:37:20.938Z,1.38
2022-11-24T14:39:49.311Z,1.37
2022-11-24T14:42:25.473Z,1.38
2022-11-24T14:45:00.198Z,1.25
2022-11-24T14:47:37.379Z,1.12
2022-11-24T14:50:23.203Z,1.03
2022-11-24T14:52:59.225Z,0.95
2022-11-24T14:55:32.628Z,0.89
2022-11-24T14:58:00.896Z,0.83
2022-11-24T15:00:31.803Z,0.84
2022-11-24T15:03:06.048Z,0.78
2022-11-24T15:06:03.817Z,0.70
2022-11-24T15:08:43.049Z,0.63
2022-11-24T15:11:11.325Z,0.64
2022-11-24T15:13:39.908Z,0.65
2022-11-24T15:16:16.141Z,0.72
2022-11-24T15:18:47.417Z,0.74
2022-11-24T15:21:19.466Z,0.71
2022-11-24T15:24:16.292Z,0.72
2022-11-24T15:26:45.428Z,0.73
2022-11-24T15:29:13.699Z,0.69
2022-11-24T15:31:47.741Z,0.66
2022-11-24T15:34:19.161Z,0.74
2022-11-24T15:36:47.229Z,0.75
2022-11-24T15:39:15.304Z,0.75
2022-11-24T15:41:43.478Z,0.78
2022-11-24T15:44:11.648Z,0.76
2022-11-24T15:46:40.292Z,0.75
2022-11-24T15:49:08.609Z,0.71
2022-11-24T15:51:42.722Z,0.78
2022-11-24T15:54:16.120Z,0.83
2022-11-24T15:56:44.709Z,0.83
2022-11-24T15:59:20.363Z,0.83
2022-11-24T16:01:50.924Z,0.85
2022-11-24T16:04:19.167Z,0.81
2022-11-24T16:06:48.149Z,0.74
2022-11-24T16:09:17.455Z,0.70
2022-11-24T16:11:45.624Z,0.73
2022-11-24T16:14:14.027Z,0.72
2022-11-24T16:16:42.510Z,0.73
2022-11-24T16:19:11.466Z,0.75
2022-11-24T16:21:39.545Z,0.76
2022-11-24T16:24:08.008Z,0.75
2022-11-24T16:26:36.097Z,0.70
2022-11-24T16:29:04.782Z,0.69
2022-11-24T16:31:33.127Z,0.69
2022-11-24T16:34:01.516Z,0.65
2022-11-24T16:36:29.925Z,0.61
2022-11-24T16:39:00.088Z,0.55
2022-11-24T16:41:28.315Z,0.49
2022-11-24T16:43:56.897Z,0.47
2022-11-24T16:46:25.539Z,0.47
2022-11-24T16:48:59.769Z,0.55
2022-11-24T16:51:34.212Z,0.56
2022-11-24T16:54:04.014Z,0.56
2022-11-24T16:56:32.418Z,0.55
2022-11-24T16:59:00.582Z,0.55
2022-11-24T17:01:30.253Z,0.57
2022-11-24T17:03:59.267Z,0.60
2022-11-24T17:06:28.151Z,0.66
2022-11-24T17:08:56.347Z,0.68
2022-11-24T17:11:26.568Z,0.67
2022-11-24T17:13:56.790Z,0.67
2022-11-24T17:16:26.165Z,0.64
2022-11-24T17:18:54.775Z,0.57
2022-11-24T17:21:25.100Z,0.51
2022-11-24T17:23:58.810Z,0.45
2022-11-24T17:26:27.799Z,0.49
2022-11-24T17:28:56.481Z,0.50
2022-11-24T17:31:32.300Z,0.48
2022-11-24T17:34:01.612Z,0.50
2022-11-24T17:36:32.235Z,0.51
2022-11-24T17:39:01.566Z,0.51
2022-11-24T17:41:30.252Z,0.48
2022-11-24T17:43:58.628Z,0.46
2022-11-24T17:46:28.688Z,0.49
2022-11-24T17:48:57.845Z,0.47
2022-11-24T17:51:27.145Z,0.45
2022-11-24T17:53:57.376Z,0.39
2022-11-24T17:56:27.596Z,0.33
2022-11-24T17:58:58.631Z,0.27
2022-11-24T18:01:30.223Z,0.22
2022-11-24T18:03:58.772Z,0.21
2022-11-24T18:06:28.925Z,0.26
2022-11-24T18:08:59.224Z,0.26
2022-11-24T18:11:32.314Z,0.26
2022-11-24T18:14:03.615Z,0.23
2022-11-24T18:16:34.705Z,0.22
2022-11-24T18:19:10.673Z,0.22
2022-11-24T18:21:41.473Z,0.25
2022-11-24T18:24:11.826Z,0.30
2022-11-24T18:26:41.092Z,0.27
2022-11-24T18:29:10.808Z,0.26
2022-11-24T18:31:39.579Z,0.28
2022-11-24T18:34:08.552Z,0.28
2022-11-24T18:36:37.072Z,0.29
2022-11-24T18:39:09.217Z,0.26
2022-11-24T18:41:37.313Z,0.29
2022-11-24T18:44:08.617Z,0.34
2022-11-24T18:46:38.251Z,0.32
2022-11-24T18:49:07.494Z,0.28
2022-11-24T18:51:36.057Z,0.27
2022-11-24T18:54:05.645Z,0.26
2022-11-24T18:56:34.032Z,0.25
2022-11-24T18:59:02.205Z,0.26
2022-11-24T19:01:30.945Z,0.29
2022-11-24T19:04:02.245Z,0.30
2022-11-24T19:06:32.925Z,0.29
2022-11-24T19:09:05.854Z,0.27
2022-11-24T19:11:37.286Z,0.26
2022-11-24T19:14:08.348Z,0.28
2022-11-24T19:16:37.451Z,0.30
2022-11-24T19:19:06.366Z,0.36
2022-11-24T19:21:37.359Z,0.40
2022-11-24T19:24:13.536Z,0.36
2022-11-24T19:26:42.028Z,0.33
2022-11-24T19:29:10.601Z,0.33
2022-11-24T19:31:44.260Z,0.31
2022-11-24T19:34:12.885Z,0.29
2022-11-24T19:36:43.417Z,0.30
2022-11-24T19:39:16.712Z,0.31
2022-11-24T19:41:45.186Z,0.29
2022-11-24T19:44:13.772Z,0.25
2022-11-24T19:46:41.843Z,0.22
2022-11-24T19:49:10.219Z,0.22
2022-11-24T19:51:40.043Z,0.19
2022-11-24T19:54:12.921Z,0.22
2022-11-24T19:56:42.216Z,0.29
2022-11-24T19:59:13.565Z,0.30
2022-11-24T20:01:42.791Z,0.29
2022-11-24T20:04:13.809Z,0.28
2022-11-24T20:06:44.230Z,0.27
2022-11-24T20:09:15.271Z,0.26
2022-11-24T20:11:44.144Z,0.23
2022-11-24T20:14:14.887Z,0.21
2022-11-24T20:16:45.635Z,0.29
2022-11-24T20:19:16.567Z,0.31
2022-11-24T20:21:48.195Z,0.32
2022-11-24T20:24:18.236Z,0.30
2022-11-24T20:26:58.390Z,0.28
2022-11-24T20:29:28.611Z,0.25
2022-11-24T20:31:57.379Z,0.21
2022-11-24T20:34:26.598Z,0.18
2022-11-24T20:36:54.773Z,0.23
2022-11-24T20:39:26.524Z,0.23
2022-11-24T20:41:55.565Z,0.20
2022-11-24T20:44:26.781Z,0.17
2022-11-24T20:46:57.024Z,0.14
2022-11-24T20:49:26.698Z,0.16
2022-11-24T20:51:57.550Z,0.14
2022-11-24T20:54:26.426Z,0.12
2022-11-24T20:56:54.905Z,0.15
2022-11-24T20:59:24.852Z,0.15
2022-11-24T21:01:55.688Z,0.13
2022-11-24T21:04:26.493Z,0.08
2022-11-24T21:06:55.381Z,0.09
2022-11-24T21:09:24.895Z,0.07
2022-11-24T21:11:55.006Z,0.04
2022-11-24T21:14:24.728Z,0.05
2022-11-24T21:16:53.237Z,0.13
2022-11-24T21:19:21.443Z,0.14
2022-11-24T21:21:53.475Z,0.13
2022-11-24T21:24:33.593Z,0.14
2022-11-24T21:27:02.948Z,0.14
2022-11-24T21:29:31.166Z,0.14
2022-11-24T21:31:59.882Z,0.15
2022-11-24T21:34:28.031Z,0.19
2022-11-24T21:36:56.197Z,0.27
2022-11-24T21:39:24.401Z,0.27
2022-11-24T21:41:53.010Z,0.26
2022-11-24T21:44:23.959Z,0.26
2022-11-24T21:46:56.322Z,0.26
2022-11-24T21:49:26.071Z,0.24
2022-11-24T21:51:57.062Z,0.24
2022-11-24T21:54:26.724Z,0.25
2022-11-24T21:56:58.789Z,0.34
2022-11-24T21:59:26.962Z,0.33
2022-11-24T22:01:55.275Z,0.31
2022-11-24T22:04:23.526Z,0.31
2022-11-24T22:06:53.634Z,0.31
2022-11-24T22:09:21.704Z,0.30
2022-11-24T22:11:49.980Z,0.25
2022-11-24T22:14:18.785Z,0.23
2022-11-24T22:16:47.041Z,0.27
2022-11-24T22:19:15.326Z,0.28
2022-11-24T22:21:43.495Z,0.29
2022-11-24T22:24:11.980Z,0.28
2022-11-24T22:26:40.149Z,0.30
2022-11-24T22:29:08.611Z,0.30
2022-11-24T22:31:36.800Z,0.31
2022-11-24T22:34:05.080Z,0.32
2022-11-24T22:36:33.460Z,0.41
2022-11-24T22:39:03.653Z,0.41
2022-11-24T22:41:34.104Z,0.39
2022-11-24T22:44:02.590Z,0.39
2022-11-24T22:46:32.085Z,0.40
2022-11-24T22:49:01.812Z,0.40
2022-11-24T22:51:33.256Z,0.38
2022-11-24T22:54:03.676Z,0.41
2022-11-24T22:56:33.493Z,0.45
2022-11-24T22:59:02.573Z,0.45
2022-11-24T23:01:33.901Z,0.42
2022-11-24T23:04:04.083Z,0.42
2022-11-24T23:06:33.662Z,0.41
2022-11-24T23:09:04.187Z,0.37
2022-11-24T23:11:38.210Z,0.35
2022-11-24T23:14:15.828Z,0.35
2022-11-24T23:16:44.382Z,0.43
2022-11-24T23:19:12.650Z,0.42
2022-11-24T23:21:40.722Z,0.38
2022-11-24T23:24:10.657Z,0.35
2022-11-24T23:26:40.861Z,0.34
2022-11-24T23:29:10.811Z,0.31
2022-11-24T23:31:42.254Z,0.26
2022-11-24T23:34:10.508Z,0.25
2022-11-24T23:36:38.977Z,0.27
2022-11-24T23:39:09.306Z,0.28
2022-11-24T23:41:37.789Z,0.27
2022-11-24T23:44:07.078Z,0.26
2022-11-24T23:46:35.671Z,0.25
2022-11-24T23:49:04.045Z,0.24
2022-11-24T23:51:33.754Z,0.22
2022-11-24T23:56:47.306Z,0.26
2022-11-24T23:59:17.528Z,0.27
